Latest Weather Observations for Nullarbor

IDS60801

Issued at 2:31 am CST Thursday 28 July 2016 (issued every 30 minutes, with the page automatically refreshed every 10 minutes)

About weather observations | Map of weather stations | Latest weather observations for SA | Other Formats
Station Details ID: 018106 Name: NULLARBOR Lat: -31.45 Lon: 130.90 Height: 64.0 m
Data from the previous 72 hours. | See also: Recent months at Nullarbor
Date/Time
CST
Temp
°C
App
Temp
°C
Dew
Point
°C
Rel
Hum
%
Delta-T
°C
Wind Press
QNH
hPa
Press
MSL
hPa
Rain since
9am
mm
Dir  Spd
km/h
Gust
km/h
Spd
kts
Gust
kts
28/02:30am 4.5 0.4 4.4 99 0.0 NE 15 17 8 9 1029.2 1029.3 0.2
28/02:07am 4.2 -0.3 4.1 99 0.0 NE 17 19 9 10 1029.3 1029.4 0.2
28/02:00am 4.1 -0.4 4.0 99 0.0 NE 17 19 9 10 1029.4 1029.5 0.2
28/01:30am 4.1 -0.4 4.0 99 0.0 NE 17 17 9 9 1029.5 1029.6 0.2
28/01:00am 4.1 -0.1 4.0 99 0.0 NE 15 17 8 9 1029.4 1029.5 0.2
28/12:30am 4.7 0.6 4.6 99 0.0 ENE 15 17 8 9 1029.4 1029.5 0.2
28/12:00am 4.8 1.1 4.7 99 0.0 ESE 13 13 7 7 1029.5 1029.6 0.2
 
Date/Time
CST
Temp
°C
App
Temp
°C
Dew
Point
°C
Rel
Hum
%
Delta-T
°C
Wind Press
QNH
hPa
Press
MSL
hPa
Rain since
9am
mm
Dir  Spd
km/h
Gust
km/h
Spd
kts
Gust
kts
27/11:30pm 5.6 2.5 5.5 99 0.0 ESE 11 13 6 7 1029.7 1029.8 0.2
27/11:00pm 6.0 2.9 5.4 96 0.3 ESE 11 13 6 7 1029.9 1030.0 0.2
27/10:30pm 6.7 3.3 6.1 96 0.3 SE 13 15 7 8 1030.1 1030.2 0.2
27/10:16pm 6.9 3.6 6.3 96 0.3 SE 13 15 7 8 1030.1 1030.2 0.2
27/10:08pm 6.9 3.6 6.2 95 0.3 SE 13 15 7 8 1030.1 1030.2 0.2
27/10:00pm 7.0 3.7 6.3 95 0.3 SE 13 13 7 7 1030.2 1030.3 0.2
27/09:47pm 7.3 4.0 6.6 95 0.3 SE 13 13 7 7 1030.2 1030.3 0.2
27/09:30pm 7.3 4.0 6.4 94 0.4 SE 13 13 7 7 1030.2 1030.3 0.2
27/09:00pm 7.6 4.7 6.5 93 0.5 SE 11 13 6 7 1030.1 1030.2 0.2
27/08:30pm 7.2 3.8 5.8 91 0.6 SE 13 15 7 8 1029.8 1029.9 0.2
27/08:00pm 7.8 4.5 6.4 91 0.6 SE 13 15 7 8 1029.4 1029.5 0.2
27/07:30pm 8.4 4.7 6.4 87 0.9 SE 15 15 8 8 1029.1 1029.2 0.2
27/07:00pm 9.4 6.2 7.0 85 1.1 ESE 13 15 7 8 1028.9 1028.9 0.2
27/06:30pm 10.2 7.1 7.1 81 1.5 SE 13 15 7 8 1028.7 1028.7 0.2
27/06:00pm 11.8 9.1 7.5 75 2.1 SSE 11 15 6 8 1028.6 1028.6 0.2
27/05:30pm 13.3 10.3 7.7 69 2.7 S 13 17 7 9 1028.7 1028.7 0.2
27/05:00pm 14.0 10.6 7.8 66 3.1 S 15 20 8 11 1028.6 1028.6 0.2
27/04:30pm 14.6 11.3 7.9 64 3.3 S 15 20 8 11 1028.5 1028.5 0.2
27/04:00pm 14.9 12.4 6.7 58 4.0 SSW 9 13 5 7 1028.7 1028.7 0.2
27/03:30pm 15.5 13.8 7.5 59 4.0 S 6 13 3 7 1028.8 1028.8 0.0
27/03:00pm 14.8 12.4 6.9 59 3.8 SW 9 15 5 8 1028.8 1028.8 0.0
27/02:30pm 14.7 11.1 6.8 59 3.8 SW 15 22 8 12 1028.8 1028.8 0.0
27/02:00pm 14.5 11.8 7.5 63 3.5 WSW 11 20 6 11 1029.1 1029.2 0.0
27/01:30pm 14.3 10.8 7.1 62 3.5 SW 15 22 8 12 1029.3 1029.4 0.0
27/01:00pm 14.4 11.6 7.0 61 3.6 WSW 11 17 6 9 1029.5 1029.6 0.0
27/12:30pm 14.3 12.3 6.9 61 3.6 SW 7 15 4 8 1029.7 1029.8 0.0
27/12:00pm 14.0 11.2 7.1 63 3.3 WSW 11 19 6 10 1029.8 1029.9 0.0
27/11:30am 13.8 11.9 6.9 63 3.3 W 6 15 3 8 1029.8 1029.9 0.0
27/11:00am 13.7 11.0 7.2 65 3.2 SSW 11 15 6 8 1029.6 1029.7 0.0
27/10:30am 13.2 10.8 6.8 65 3.1 SW 9 19 5 10 1029.6 1029.7 0.0
27/10:00am 13.2 9.7 7.0 66 3.0 SW 15 20 8 11 1029.6 1029.7 0.0
27/09:30am 12.9 9.8 7.1 68 2.8 SW 13 17 7 9 1029.2 1029.3 0.0
27/09:00am 12.2 10.5 8.3 77 1.9 WSW 7 9 4 5 1028.7 1028.7 0.0
27/08:30am 12.2 9.6 7.9 75 2.1 SW 11 17 6 9 1028.5 1028.5 0.0
27/08:00am 11.5 9.8 8.2 80 1.6 WSW 7 9 4 5 1028.3 1028.3 0.0
27/07:30am 11.6 10.0 8.1 79 1.7 WSW 6 7 3 4 1027.8 1027.8 0.0
27/07:00am 11.9 10.0 7.6 75 2.1 WSW 7 9 4 5 1027.2 1027.2 0.0
27/06:30am 12.4 8.2 7.3 71 2.5 SW 19 24 10 13 1026.9 1026.9 0.0
27/06:00am 12.0 8.6 7.5 74 2.2 SW 15 19 8 10 1026.5 1026.5 0.0
27/05:30am 11.9 9.7 7.8 76 2.0 SW 9 13 5 7 1026.3 1026.3 0.0
27/05:00am 12.1 8.7 7.6 74 2.2 SW 15 26 8 14 1026.1 1026.1 0.0
27/04:30am 12.4 8.3 7.9 74 2.2 SSW 19 24 10 13 1025.8 1025.8 0.0
27/04:00am 12.3 8.6 8.0 75 2.1 S 17 20 9 11 1025.6 1025.6 0.0
27/03:30am 12.5 8.2 8.0 74 2.2 SSW 20 24 11 13 1025.6 1025.6 0.0
27/03:00am 12.5 9.0 8.6 77 1.9 SSW 17 20 9 11 1025.6 1025.6 0.0
27/02:30am 12.6 9.1 8.9 78 1.8 SSW 17 22 9 12 1025.4 1025.4 0.0
27/02:00am 12.8 9.0 8.9 77 2.0 SSW 19 22 10 12 1025.5 1025.5 0.0
27/01:30am 12.5 9.8 8.8 78 1.8 SW 13 17 7 9 1025.4 1025.4 0.0
27/01:00am 12.9 9.4 8.8 76 2.1 SW 17 24 9 13 1025.3 1025.3 0.0
27/12:30am 13.2 8.8 8.9 75 2.2 WSW 22 30 12 16 1025.2 1025.2 0.0
27/12:00am 12.7 8.9 9.2 79 1.8 SW 19 26 10 14 1025.4 1025.4 0.0
 
Date/Time
CST
Temp
°C
App
Temp
°C
Dew
Point
°C
Rel
Hum
%
Delta-T
°C
Wind Press
QNH
hPa
Press
MSL
hPa
Rain since
9am
mm
Dir  Spd
km/h
Gust
km/h
Spd
kts
Gust
kts
26/11:30pm 11.6 10.0 11.6 100 0.0 W 11 15 6 8 1025.4 1025.4 0.0
26/11:00pm 11.2 8.7 11.0 99 0.1 WNW 15 20 8 11 1025.1 1025.1 0.0
26/10:30pm 11.2 9.1 11.0 99 0.1 WNW 13 19 7 10 1024.7 1024.7 0.0
26/10:00pm 11.2 9.1 11.0 99 0.1 W 13 17 7 9 1024.6 1024.6 0.0
26/09:30pm 11.7 8.9 11.4 98 0.2 W 17 20 9 11 1024.5 1024.5 0.0
26/09:00pm 12.3 8.9 11.2 93 0.6 W 20 30 11 16 1024.2 1024.2 0.0
26/08:30pm 12.7 9.0 11.4 92 0.7 W 22 35 12 19 1024.0 1024.0 0.0
26/08:22pm 12.9 8.9 11.8 93 0.6 W 24 35 13 19 1024.0 1024.0 0.0
26/08:00pm 13.0 9.6 11.1 88 1.0 W 20 28 11 15 1024.0 1024.0 0.0
26/07:58pm 13.0 9.5 10.9 87 1.1 W 20 26 11 14 1023.9 1023.9 0.0
26/07:30pm 13.4 8.9 10.0 80 1.8 W 24 32 13 17 1023.3 1023.3 0.0
26/07:00pm 13.7 9.1 9.6 76 2.1 W 24 33 13 18 1022.8 1022.9 0.0
26/06:30pm 14.0 8.2 9.4 74 2.3 W 30 41 16 22 1022.5 1022.6 0.0
26/06:04pm 14.4 8.0 9.2 71 2.7 W 33 52 18 28 1022.4 1022.5 0.0
26/06:00pm 14.5 7.7 9.1 70 2.7 WSW 35 52 19 28 1022.3 1022.4 0.0
26/05:46pm 14.7 8.1 8.4 66 3.2 W 33 52 18 28 1022.1 1022.2 0.0
26/05:30pm 15.0 8.3 8.0 63 3.5 W 33 46 18 25 1022.0 1022.1 0.0
26/05:14pm 15.7 8.1 7.5 58 4.1 W 37 56 20 30 1021.9 1022.0 0.0
26/05:00pm 15.6 7.6 7.6 59 4.0 W 39 52 21 28 1021.7 1021.8 0.0
26/04:31pm 15.8 8.6 7.6 58 4.1 W 35 54 19 29 1021.9 1022.0 0.0
26/04:30pm 15.9 8.7 7.7 58 4.1 W 35 50 19 27 1022.0 1022.1 0.0
26/04:10pm 15.8 7.9 7.8 59 4.0 W 39 57 21 31 1022.0 1022.1 0.0
26/04:00pm 15.5 6.7 7.3 58 4.1 W 43 57 23 31 1021.8 1021.9 0.0
26/03:50pm 15.8 7.8 7.3 57 4.2 W 39 57 21 31 1021.7 1021.8 0.0
26/03:30pm 16.0 6.5 6.7 54 4.6 W 46 59 25 32 1021.4 1021.5 0.0
26/03:01pm 16.7 7.2 6.5 51 5.0 W 46 65 25 35 1021.3 1021.4 0.0
26/03:00pm 16.6 7.0 6.4 51 5.0 W 46 61 25 33 1021.3 1021.4 0.0
26/02:31pm 16.4 7.3 5.7 49 5.2 W 43 61 23 33 1021.2 1021.3 0.0
26/02:30pm 16.4 7.1 5.7 49 5.2 W 44 61 24 33 1021.2 1021.3 0.0
26/02:00pm 16.0 6.2 5.3 49 5.1 WSW 46 65 25 35 1021.2 1021.3 0.0
26/01:39pm 16.0 6.7 5.0 48 5.2 WSW 43 63 23 34 1021.3 1021.4 0.0
26/01:30pm 16.1 6.8 4.8 47 5.3 W 43 57 23 31 1021.4 1021.5 0.0
26/01:08pm 15.7 7.4 5.9 52 4.7 W 39 63 21 34 1021.7 1021.8 0.0
26/01:00pm 16.3 8.6 7.0 54 4.6 W 37 52 20 28 1021.8 1021.9 0.0
26/12:30pm 15.0 6.4 6.6 57 4.1 W 41 56 22 30 1022.1 1022.2 0.0
26/12:11pm 15.4 8.3 7.9 61 3.8 W 35 54 19 29 1022.2 1022.3 0.0
26/12:00pm 14.6 6.6 7.6 63 3.5 WNW 39 50 21 27 1022.2 1022.3 0.0
26/11:30am 13.8 7.4 9.3 74 2.3 WNW 33 48 18 26 1022.5 1022.6 0.0
26/11:00am 12.7 6.7 10.1 84 1.3 WNW 32 41 17 22 1022.9 1023.0 0.0
26/10:30am 11.1 6.8 10.9 99 0.1 NW 24 32 13 17 1022.9 1023.0 0.0
26/10:00am 9.9 5.4 9.9 100 0.0 WNW 24 32 13 17 1023.2 1023.2 0.0
26/09:30am 9.1 4.4 9.1 100 0.0 WNW 24 32 13 17 1023.1 1023.1 0.0
26/09:00am 7.7 3.6 7.7 100 0.0 NW 19 26 10 14 1022.9 1023.0 1.0
26/08:35am 7.3 3.4 7.3 100 0.0 NW 17 20 9 11 1022.7 1022.8 1.0
26/08:30am 7.1 3.2 7.1 100 0.0 NW 17 20 9 11 1022.7 1022.8 1.0
26/08:27am 6.9 3.0 6.9 100 0.0 NW 17 20 9 11 1022.7 1022.8 1.0
26/08:00am 6.5 2.5 6.5 100 0.0 NW 17 20 9 11 1022.5 1022.6 1.0
26/07:51am 6.6 2.6 6.6 100 0.0 NW 17 20 9 11 1022.4 1022.5 1.0
26/07:30am 6.9 3.3 6.9 100 0.0 NW 15 17 8 9 1022.2 1022.3 1.0
26/07:00am 6.7 2.7 6.7 100 0.0 WNW 17 19 9 10 1022.0 1022.1 1.0
26/06:30am 6.2 3.2 6.2 100 0.0 NW 11 13 6 7 1021.5 1021.6 1.0
26/06:00am 6.1 2.7 6.1 100 0.0 NNW 13 17 7 9 1021.7 1021.8 1.0
26/05:45am 6.6 2.6 6.6 100 0.0 NW 17 20 9 11 1022.1 1022.2 1.0
26/05:30am 6.5 2.8 6.5 100 0.0 NW 15 19 8 10 1022.0 1022.1 1.0
26/05:26am 6.5 2.8 6.5 100 0.0 NW 15 19 8 10 1021.9 1022.0 1.0
26/05:00am 6.3 3.0 6.3 100 0.0 NW 13 19 7 10 1021.6 1021.7 1.0
26/04:55am 6.2 3.2 6.2 100 0.0 NW 11 15 6 8 1021.7 1021.8 1.0
26/04:30am 6.6 3.7 6.6 100 0.0 NW 11 13 6 7 1021.7 1021.8 1.0
26/04:00am 7.3 4.2 7.3 100 0.0 NW 13 15 7 8 1021.9 1022.0 1.0
26/03:30am 7.7 4.7 7.7 100 0.0 NW 13 13 7 7 1022.2 1022.3 1.0
26/03:25am 7.8 5.2 7.8 100 0.0 NW 11 13 6 7 1022.2 1022.3 1.0
26/03:00am 8.9 6.6 8.9 100 0.0 NW 11 13 6 7 1022.4 1022.5 1.0
26/02:59am 8.9 6.6 8.9 100 0.0 NW 11 13 6 7 1022.4 1022.5 1.0
26/02:48am 9.1 6.4 9.1 100 0.0 NW 13 15 7 8 1022.5 1022.6 0.8
26/02:30am 9.1 7.2 9.1 100 0.0 WNW 9 13 5 7 1022.6 1022.7 0.8
26/02:27am 9.1 7.2 9.1 100 0.0 WNW 9 11 5 6 1022.6 1022.7 0.8
26/02:14am 8.9 7.0 8.9 100 0.0 W 9 13 5 7 1022.8 1022.9 0.6
26/02:08am 9.0 7.1 9.0 100 0.0 WNW 9 13 5 7 1022.8 1022.9 0.6
26/02:00am 9.1 7.2 9.1 100 0.0 WNW 9 13 5 7 1022.8 1022.9 0.6
26/01:52am 9.3 7.5 9.3 100 0.0 WNW 9 11 5 6 1022.8 1022.9 0.6
26/01:51am 9.3 7.5 9.3 100 0.0 WNW 9 11 5 6 1022.8 1022.9 0.6
26/01:46am 9.4 7.6 9.4 100 0.0 W 9 11 5 6 1022.8 1022.9 0.6
26/01:30am 8.9 6.6 8.9 100 0.0 WNW 11 15 6 8 1022.9 1023.0 0.6
26/01:20am 8.2 6.1 8.2 100 0.0 WNW 9 11 5 6 1023.1 1023.1 0.2
26/01:09am 8.2 5.7 8.2 100 0.0 WNW 11 13 6 7 1022.9 1023.0 0.2
26/01:00am 8.5 6.1 8.5 100 0.0 WNW 11 15 6 8 1022.9 1023.0 0.2
26/12:58am 8.5 6.1 8.5 100 0.0 WNW 11 15 6 8 1022.8 1022.9 0.2
26/12:38am 9.8 6.6 9.8 100 0.0 WSW 17 24 9 13 1022.9 1023.0 0.2
26/12:30am 8.7 5.6 8.7 100 0.0 W 15 20 8 11 1022.9 1023.0 0.2
26/12:00am 6.8 4.0 6.8 100 0.0 W 11 15 6 8 1023.1 1023.1 0.2
 
Date/Time
CST
Temp
°C
App
Temp
°C
Dew
Point
°C
Rel
Hum
%
Delta-T
°C
Wind Press
QNH
hPa
Press
MSL
hPa
Rain since
9am
mm
Dir  Spd
km/h
Gust
km/h
Spd
kts
Gust
kts
25/11:30pm 6.3 3.0 6.2 99 0.0 W 13 17 7 9 1023.3 1023.3 0.2
25/11:00pm 6.5 3.2 6.4 99 0.0 WNW 13 15 7 8 1023.3 1023.3 0.2
25/10:30pm 6.9 3.7 6.8 99 0.0 WNW 13 13 7 7 1023.2 1023.2 0.2
25/10:00pm 7.7 5.1 7.6 99 0.0 NW 11 13 6 7 1023.2 1023.2 0.2
25/09:30pm 8.5 6.0 8.2 98 0.1 WNW 11 13 6 7 1023.2 1023.2 0.2
25/09:00pm 9.3 6.6 8.8 97 0.2 W 13 17 7 9 1023.3 1023.3 0.2
25/08:30pm 9.5 6.7 8.6 94 0.4 WSW 13 15 7 8 1023.1 1023.1 0.2
25/08:00pm 10.2 7.4 8.6 90 0.8 WSW 13 17 7 9 1022.9 1023.0 0.2
25/07:30pm 10.5 7.7 8.4 87 1.0 WSW 13 17 7 9 1022.9 1023.0 0.2
25/07:00pm 11.3 8.0 8.2 81 1.5 WSW 15 17 8 9 1022.8 1022.9 0.2
25/06:30pm 12.1 8.5 8.2 77 1.9 WSW 17 22 9 12 1022.6 1022.7 0.2
25/06:00pm 12.9 8.7 8.4 74 2.2 WSW 20 28 11 15 1022.4 1022.5 0.2
25/05:30pm 13.7 9.5 8.1 69 2.8 WSW 20 30 11 16 1022.3 1022.4 0.2
25/05:00pm 14.5 9.6 8.5 67 3.0 WSW 24 33 13 18 1022.3 1022.4 0.2
25/04:30pm 14.6 8.7 7.6 63 3.5 WSW 28 39 15 21 1022.0 1022.1 0.2
25/04:00pm 14.9 9.4 7.7 62 3.6 WSW 26 35 14 19 1021.8 1021.9 0.2
25/03:30pm 15.2 9.3 7.3 59 3.9 WSW 28 39 15 21 1021.9 1022.0 0.2
25/03:00pm 15.1 8.1 6.9 58 4.0 WSW 33 43 18 23 1021.8 1021.9 0.2
25/02:30pm 15.4 8.9 6.7 56 4.2 WSW 30 44 16 24 1021.9 1022.0 0.2
25/02:00pm 15.6 8.7 6.6 55 4.4 WSW 32 43 17 23 1022.0 1022.1 0.2
25/01:30pm 15.4 9.7 6.7 56 4.2 W 26 37 14 20 1022.6 1022.7 0.2
25/01:00pm 14.8 8.8 6.9 59 3.9 W 28 39 15 21 1023.1 1023.1 0.2
25/12:30pm 14.3 7.4 6.6 60 3.7 W 32 44 17 24 1023.6 1023.6 0.2
25/12:00pm 14.1 7.3 6.9 62 3.5 W 32 43 17 23 1024.1 1024.1 0.0
25/11:30am 13.5 6.4 6.6 63 3.3 W 33 43 18 23 1024.5 1024.5 0.0
25/11:00am 12.9 6.4 6.7 66 3.0 W 30 39 16 21 1024.7 1024.7 0.0
25/10:30am 11.8 5.7 6.7 71 2.4 WNW 28 39 15 21 1024.7 1024.7 0.0
25/10:00am 11.1 5.4 6.8 75 2.0 WNW 26 35 14 19 1024.5 1024.5 0.0
25/09:30am 9.8 5.0 7.2 84 1.2 WNW 22 32 12 17 1024.4 1024.4 0.0
25/09:00am 7.8 3.0 7.4 97 0.2 WNW 22 28 12 15 1024.0 1024.0 0.0
25/08:30am 6.2 1.7 6.1 99 0.0 NW 19 22 10 12 1023.6 1023.6 0.0
25/08:00am 5.0 1.0 5.0 100 0.0 NW 15 20 8 11 1023.4 1023.4 0.0
25/07:30am 4.8 1.2 4.8 100 0.0 NW 13 17 7 9 1023.5 1023.5 0.0
25/07:00am 4.9 0.5 4.9 100 0.0 NW 17 19 9 10 1023.2 1023.2 0.0
25/06:30am 4.8 0.8 4.7 99 0.0 NW 15 19 8 10 1023.2 1023.2 0.0
25/06:00am 4.7 0.6 4.6 99 0.0 NW 15 17 8 9 1023.2 1023.2 0.0
25/05:30am 5.1 1.1 5.0 99 0.0 NW 15 19 8 10 1022.9 1023.0 0.0
25/05:00am 5.6 1.4 5.5 99 0.0 WNW 17 19 9 10 1022.7 1022.8 0.0
25/04:30am 6.1 1.6 6.0 99 0.0 WNW 19 26 10 14 1022.7 1022.8 0.0
25/04:00am 5.8 1.6 5.7 99 0.0 WNW 17 22 9 12 1022.9 1023.0 0.0
25/03:30am 6.3 2.2 6.2 99 0.0 WNW 17 22 9 12 1023.1 1023.1 0.0
25/03:00am 6.4 1.9 6.3 99 0.0 WNW 19 22 10 12 1023.1 1023.1 0.0

Other Formats:

Comma delimited format used in spreadsheet applications
http://www.bom.gov.au/fwo/IDS60801/IDS60801.94651.axf

JavaScript Object Notation format (JSON) in row-major order
http://www.bom.gov.au/fwo/IDS60801/IDS60801.94651.json